sensor_id;sensor_type;location;lat;lon;timestamp;temperature;humidity
49489;SHT31;35382;51.484;11.476;2024-01-07T00:00:24;-0.41;98.24
49489;SHT31;35382;51.484;11.476;2024-01-07T00:02:49;-0.47;98.47
49489;SHT31;35382;51.484;11.476;2024-01-07T00:05:18;-0.58;98.43
49489;SHT31;35382;51.484;11.476;2024-01-07T00:07:43;-0.57;98.85
49489;SHT31;35382;51.484;11.476;2024-01-07T00:10:09;-0.48;98.61
49489;SHT31;35382;51.484;11.476;2024-01-07T00:12:34;-0.65;98.45
49489;SHT31;35382;51.484;11.476;2024-01-07T00:14:59;-0.64;98.66
49489;SHT31;35382;51.484;11.476;2024-01-07T00:17:25;-0.59;98.80
49489;SHT31;35382;51.484;11.476;2024-01-07T00:19:50;-0.62;98.78
49489;SHT31;35382;51.484;11.476;2024-01-07T00:22:18;-0.52;98.83
49489;SHT31;35382;51.484;11.476;2024-01-07T00:24:43;-0.52;98.82
49489;SHT31;35382;51.484;11.476;2024-01-07T00:27:09;-0.57;98.35
49489;SHT31;35382;51.484;11.476;2024-01-07T00:29:34;-0.62;97.90
49489;SHT31;35382;51.484;11.476;2024-01-07T00:32:00;-0.57;97.72
49489;SHT31;35382;51.484;11.476;2024-01-07T00:34:30;-0.59;98.06
49489;SHT31;35382;51.484;11.476;2024-01-07T00:36:55;-0.65;97.65
49489;SHT31;35382;51.484;11.476;2024-01-07T00:39:21;-0.69;97.86
49489;SHT31;35382;51.484;11.476;2024-01-07T00:41:46;-0.76;97.94
49489;SHT31;35382;51.484;11.476;2024-01-07T00:44:12;-0.79;97.90
49489;SHT31;35382;51.484;11.476;2024-01-07T00:46:38;-0.76;97.97
49489;SHT31;35382;51.484;11.476;2024-01-07T00:49:03;-0.73;98.06
49489;SHT31;35382;51.484;11.476;2024-01-07T00:51:30;-0.88;98.00
49489;SHT31;35382;51.484;11.476;2024-01-07T00:53:55;-0.86;98.08
49489;SHT31;35382;51.484;11.476;2024-01-07T00:56:21;-0.83;98.17
49489;SHT31;35382;51.484;11.476;2024-01-07T00:58:46;-0.86;97.68
49489;SHT31;35382;51.484;11.476;2024-01-07T01:01:12;-0.93;97.65
49489;SHT31;35382;51.484;11.476;2024-01-07T01:03:37;-0.85;97.62
49489;SHT31;35382;51.484;11.476;2024-01-07T01:06:04;-0.92;98.00
49489;SHT31;35382;51.484;11.476;2024-01-07T01:08:30;-0.88;97.54
49489;SHT31;35382;51.484;11.476;2024-01-07T01:10:55;-1.00;97.44
49489;SHT31;35382;51.484;11.476;2024-01-07T01:13:21;-1.00;97.44
49489;SHT31;35382;51.484;11.476;2024-01-07T01:15:46;-0.99;97.43
49489;SHT31;35382;51.484;11.476;2024-01-07T01:18:12;-1.00;98.07
49489;SHT31;35382;51.484;11.476;2024-01-07T01:20:37;-0.99;98.12
49489;SHT31;35382;51.484;11.476;2024-01-07T01:23:03;-0.97;98.03
49489;SHT31;35382;51.484;11.476;2024-01-07T01:25:28;-1.00;97.82
49489;SHT31;35382;51.484;11.476;2024-01-07T01:27:53;-1.07;97.62
49489;SHT31;35382;51.484;11.476;2024-01-07T01:30:19;-1.05;97.71
49489;SHT31;35382;51.484;11.476;2024-01-07T01:32:44;-1.13;97.43
49489;SHT31;35382;51.484;11.476;2024-01-07T01:35:10;-1.09;97.62
49489;SHT31;35382;51.484;11.476;2024-01-07T01:37:35;-1.15;97.63
49489;SHT31;35382;51.484;11.476;2024-01-07T01:40:00;-1.20;97.04
49489;SHT31;35382;51.484;11.476;2024-01-07T01:42:34;-1.17;97.60
49489;SHT31;35382;51.484;11.476;2024-01-07T01:44:59;-1.20;97.37
49489;SHT31;35382;51.484;11.476;2024-01-07T01:47:25;-1.25;97.26
49489;SHT31;35382;51.484;11.476;2024-01-07T01:49:50;-1.19;97.58
49489;SHT31;35382;51.484;11.476;2024-01-07T01:52:16;-1.29;97.51
49489;SHT31;35382;51.484;11.476;2024-01-07T01:54:42;-1.20;98.01
49489;SHT31;35382;51.484;11.476;2024-01-07T01:57:09;-1.15;98.05
49489;SHT31;35382;51.484;11.476;2024-01-07T01:59:38;-1.21;97.58
49489;SHT31;35382;51.484;11.476;2024-01-07T02:02:04;-1.27;97.39
49489;SHT31;35382;51.484;11.476;2024-01-07T02:04:30;-1.29;97.58
49489;SHT31;35382;51.484;11.476;2024-01-07T02:06:58;-1.26;97.47
49489;SHT31;35382;51.484;11.476;2024-01-07T02:09:23;-1.33;97.53
49489;SHT31;35382;51.484;11.476;2024-01-07T02:12:05;-1.32;97.50
49489;SHT31;35382;51.484;11.476;2024-01-07T02:14:31;-1.23;97.07
49489;SHT31;35382;51.484;11.476;2024-01-07T02:16:59;-1.25;97.55
49489;SHT31;35382;51.484;11.476;2024-01-07T02:19:24;-1.26;97.42
49489;SHT31;35382;51.484;11.476;2024-01-07T02:21:50;-1.35;97.02
49489;SHT31;35382;51.484;11.476;2024-01-07T02:24:19;-1.30;96.91
49489;SHT31;35382;51.484;11.476;2024-01-07T02:26:44;-1.40;96.99
49489;SHT31;35382;51.484;11.476;2024-01-07T02:29:10;-1.36;96.99
49489;SHT31;35382;51.484;11.476;2024-01-07T02:31:35;-1.50;96.80
49489;SHT31;35382;51.484;11.476;2024-01-07T02:34:01;-1.51;96.78
49489;SHT31;35382;51.484;11.476;2024-01-07T02:36:26;-1.54;96.94
49489;SHT31;35382;51.484;11.476;2024-01-07T02:38:52;-1.51;96.62
49489;SHT31;35382;51.484;11.476;2024-01-07T02:41:17;-1.43;96.71
49489;SHT31;35382;51.484;11.476;2024-01-07T02:43:42;-1.50;97.02
49489;SHT31;35382;51.484;11.476;2024-01-07T02:46:08;-1.42;96.84
49489;SHT31;35382;51.484;11.476;2024-01-07T02:48:34;-1.54;96.68
49489;SHT31;35382;51.484;11.476;2024-01-07T02:51:00;-1.60;96.80
49489;SHT31;35382;51.484;11.476;2024-01-07T02:53:26;-1.68;96.85
49489;SHT31;35382;51.484;11.476;2024-01-07T02:55:51;-1.70;96.91
49489;SHT31;35382;51.484;11.476;2024-01-07T02:58:19;-1.74;96.95
49489;SHT31;35382;51.484;11.476;2024-01-07T03:00:44;-1.66;97.52
49489;SHT31;35382;51.484;11.476;2024-01-07T03:03:10;-1.75;96.73
49489;SHT31;35382;51.484;11.476;2024-01-07T03:05:35;-1.75;96.78
49489;SHT31;35382;51.484;11.476;2024-01-07T03:08:00;-1.74;97.01
49489;SHT31;35382;51.484;11.476;2024-01-07T03:10:26;-1.75;97.13
49489;SHT31;35382;51.484;11.476;2024-01-07T03:12:51;-1.78;96.94
49489;SHT31;35382;51.484;11.476;2024-01-07T03:15:17;-1.77;97.08
49489;SHT31;35382;51.484;11.476;2024-01-07T03:17:43;-1.66;96.85
49489;SHT31;35382;51.484;11.476;2024-01-07T03:20:09;-1.80;96.74
49489;SHT31;35382;51.484;11.476;2024-01-07T03:22:38;-1.80;96.60
49489;SHT31;35382;51.484;11.476;2024-01-07T03:25:04;-1.90;96.40
49489;SHT31;35382;51.484;11.476;2024-01-07T03:27:29;-1.87;96.32
49489;SHT31;35382;51.484;11.476;2024-01-07T03:29:54;-1.95;96.20
49489;SHT31;35382;51.484;11.476;2024-01-07T03:32:20;-2.02;96.41
49489;SHT31;35382;51.484;11.476;2024-01-07T03:34:46;-2.01;96.06
49489;SHT31;35382;51.484;11.476;2024-01-07T03:37:11;-1.97;96.42
49489;SHT31;35382;51.484;11.476;2024-01-07T03:39:36;-2.07;96.28
49489;SHT31;35382;51.484;11.476;2024-01-07T03:42:02;-2.08;96.48
49489;SHT31;35382;51.484;11.476;2024-01-07T03:44:27;-2.08;96.34
49489;SHT31;35382;51.484;11.476;2024-01-07T03:46:58;-2.15;96.30
49489;SHT31;35382;51.484;11.476;2024-01-07T03:49:24;-2.17;96.45
49489;SHT31;35382;51.484;11.476;2024-01-07T03:51:49;-2.21;96.16
49489;SHT31;35382;51.484;11.476;2024-01-07T03:54:16;-2.30;96.15
49489;SHT31;35382;51.484;11.476;2024-01-07T03:56:41;-2.37;95.91
49489;SHT31;35382;51.484;11.476;2024-01-07T03:59:07;-2.34;96.23
49489;SHT31;35382;51.484;11.476;2024-01-07T04:01:32;-2.25;96.01
49489;SHT31;35382;51.484;11.476;2024-01-07T04:03:58;-2.32;96.08
49489;SHT31;35382;51.484;11.476;2024-01-07T04:06:23;-2.35;95.97
49489;SHT31;35382;51.484;11.476;2024-01-07T04:08:49;-2.32;96.10
49489;SHT31;35382;51.484;11.476;2024-01-07T04:11:20;-2.34;96.14
49489;SHT31;35382;51.484;11.476;2024-01-07T04:13:45;-2.35;95.91
49489;SHT31;35382;51.484;11.476;2024-01-07T04:16:22;-2.32;95.97
49489;SHT31;35382;51.484;11.476;2024-01-07T04:18:48;-2.35;96.35
49489;SHT31;35382;51.484;11.476;2024-01-07T04:21:16;-2.30;96.48
49489;SHT31;35382;51.484;11.476;2024-01-07T04:23:47;-2.22;96.18
49489;SHT31;35382;51.484;11.476;2024-01-07T04:26:13;-2.30;95.86
49489;SHT31;35382;51.484;11.476;2024-01-07T04:28:42;-2.24;95.93
49489;SHT31;35382;51.484;11.476;2024-01-07T04:31:08;-2.25;95.57
49489;SHT31;35382;51.484;11.476;2024-01-07T04:33:33;-2.22;95.24
49489;SHT31;35382;51.484;11.476;2024-01-07T04:36:08;-2.30;95.05
49489;SHT31;35382;51.484;11.476;2024-01-07T04:38:36;-2.31;94.99
49489;SHT31;35382;51.484;11.476;2024-01-07T04:41:02;-2.35;95.12
49489;SHT31;35382;51.484;11.476;2024-01-07T04:43:28;-2.37;95.00
49489;SHT31;35382;51.484;11.476;2024-01-07T04:45:53;-2.38;94.63
49489;SHT31;35382;51.484;11.476;2024-01-07T04:48:28;-2.40;94.28
49489;SHT31;35382;51.484;11.476;2024-01-07T04:50:53;-2.30;93.73
49489;SHT31;35382;51.484;11.476;2024-01-07T04:53:18;-2.38;94.27
49489;SHT31;35382;51.484;11.476;2024-01-07T04:55:46;-2.35;94.09
49489;SHT31;35382;51.484;11.476;2024-01-07T04:58:12;-2.35;93.61
49489;SHT31;35382;51.484;11.476;2024-01-07T05:00:40;-2.41;93.69
49489;SHT31;35382;51.484;11.476;2024-01-07T05:03:06;-2.41;93.58
49489;SHT31;35382;51.484;11.476;2024-01-07T05:05:39;-2.38;94.76
49489;SHT31;35382;51.484;11.476;2024-01-07T05:08:06;-2.37;94.40
49489;SHT31;35382;51.484;11.476;2024-01-07T05:10:42;-2.44;94.21
49489;SHT31;35382;51.484;11.476;2024-01-07T05:13:08;-2.38;94.39
49489;SHT31;35382;51.484;11.476;2024-01-07T05:15:33;-2.35;94.17
49489;SHT31;35382;51.484;11.476;2024-01-07T05:17:59;-2.32;94.23
49489;SHT31;35382;51.484;11.476;2024-01-07T05:20:24;-2.45;94.33
49489;SHT31;35382;51.484;11.476;2024-01-07T05:22:50;-2.41;94.59
49489;SHT31;35382;51.484;11.476;2024-01-07T05:25:15;-2.44;94.95
49489;SHT31;35382;51.484;11.476;2024-01-07T05:27:44;-2.40;94.98
49489;SHT31;35382;51.484;11.476;2024-01-07T05:30:09;-2.41;94.88
49489;SHT31;35382;51.484;11.476;2024-01-07T05:32:43;-2.37;94.84
49489;SHT31;35382;51.484;11.476;2024-01-07T05:35:08;-2.40;95.20
49489;SHT31;35382;51.484;11.476;2024-01-07T05:37:39;-2.32;95.25
49489;SHT31;35382;51.484;11.476;2024-01-07T05:40:05;-2.37;95.09
49489;SHT31;35382;51.484;11.476;2024-01-07T05:42:31;-2.30;95.27
49489;SHT31;35382;51.484;11.476;2024-01-07T05:45:00;-2.34;95.47
49489;SHT31;35382;51.484;11.476;2024-01-07T05:47:26;-2.34;95.31
49489;SHT31;35382;51.484;11.476;2024-01-07T05:49:51;-2.32;95.39
49489;SHT31;35382;51.484;11.476;2024-01-07T05:52:23;-2.24;94.65
49489;SHT31;35382;51.484;11.476;2024-01-07T05:54:48;-2.27;94.39
49489;SHT31;35382;51.484;11.476;2024-01-07T05:57:14;-2.32;94.54
49489;SHT31;35382;51.484;11.476;2024-01-07T05:59:43;-2.34;95.10
49489;SHT31;35382;51.484;11.476;2024-01-07T06:02:08;-2.25;94.65
49489;SHT31;35382;51.484;11.476;2024-01-07T06:04:44;-2.22;94.58
49489;SHT31;35382;51.484;11.476;2024-01-07T06:07:12;-2.37;94.05
49489;SHT31;35382;51.484;11.476;2024-01-07T06:09:43;-2.31;93.95
49489;SHT31;35382;51.484;11.476;2024-01-07T06:12:09;-2.41;93.30
49489;SHT31;35382;51.484;11.476;2024-01-07T06:14:40;-2.41;93.13
49489;SHT31;35382;51.484;11.476;2024-01-07T06:17:06;-2.40;93.19
49489;SHT31;35382;51.484;11.476;2024-01-07T06:19:31;-2.48;93.06
49489;SHT31;35382;51.484;11.476;2024-01-07T06:22:03;-2.56;92.94
49489;SHT31;35382;51.484;11.476;2024-01-07T06:24:29;-2.51;92.50
49489;SHT31;35382;51.484;11.476;2024-01-07T06:26:54;-2.40;93.20
49489;SHT31;35382;51.484;11.476;2024-01-07T06:29:26;-2.42;93.22
49489;SHT31;35382;51.484;11.476;2024-01-07T06:32:00;-2.45;93.30
49489;SHT31;35382;51.484;11.476;2024-01-07T06:34:26;-2.46;92.89
49489;SHT31;35382;51.484;11.476;2024-01-07T06:37:03;-2.40;92.34
49489;SHT31;35382;51.484;11.476;2024-01-07T06:39:29;-2.52;92.29
49489;SHT31;35382;51.484;11.476;2024-01-07T06:42:00;-2.56;91.79
49489;SHT31;35382;51.484;11.476;2024-01-07T06:44:29;-2.59;91.35
49489;SHT31;35382;51.484;11.476;2024-01-07T06:47:06;-2.68;90.42
49489;SHT31;35382;51.484;11.476;2024-01-07T06:49:31;-2.76;90.19
49489;SHT31;35382;51.484;11.476;2024-01-07T06:52:04;-2.85;89.77
49489;SHT31;35382;51.484;11.476;2024-01-07T06:54:29;-2.86;90.05
49489;SHT31;35382;51.484;11.476;2024-01-07T06:56:58;-2.83;90.17
49489;SHT31;35382;51.484;11.476;2024-01-07T06:59:24;-2.93;91.53
49489;SHT31;35382;51.484;11.476;2024-01-07T07:01:49;-2.87;90.11
49489;SHT31;35382;51.484;11.476;2024-01-07T07:04:15;-2.83;91.15
49489;SHT31;35382;51.484;11.476;2024-01-07T07:06:49;-2.87;91.65
49489;SHT31;35382;51.484;11.476;2024-01-07T07:09:15;-2.85;91.11
49489;SHT31;35382;51.484;11.476;2024-01-07T07:11:50;-2.89;90.98
49489;SHT31;35382;51.484;11.476;2024-01-07T07:14:25;-2.86;91.30
49489;SHT31;35382;51.484;11.476;2024-01-07T07:16:51;-2.83;90.02
49489;SHT31;35382;51.484;11.476;2024-01-07T07:19:19;-2.87;89.45
49489;SHT31;35382;51.484;11.476;2024-01-07T07:21:45;-2.85;89.72
49489;SHT31;35382;51.484;11.476;2024-01-07T07:24:11;-3.00;89.43
49489;SHT31;35382;51.484;11.476;2024-01-07T07:26:40;-3.03;89.37
49489;SHT31;35382;51.484;11.476;2024-01-07T07:29:09;-3.03;88.77
49489;SHT31;35382;51.484;11.476;2024-01-07T07:31:42;-3.01;88.89
49489;SHT31;35382;51.484;11.476;2024-01-07T07:34:11;-3.07;89.66
49489;SHT31;35382;51.484;11.476;2024-01-07T07:36:43;-3.09;89.66
49489;SHT31;35382;51.484;11.476;2024-01-07T07:39:08;-3.01;89.40
49489;SHT31;35382;51.484;11.476;2024-01-07T07:41:46;-2.99;88.77
49489;SHT31;35382;51.484;11.476;2024-01-07T07:44:11;-3.06;89.18
49489;SHT31;35382;51.484;11.476;2024-01-07T07:47:01;-3.09;89.21
49489;SHT31;35382;51.484;11.476;2024-01-07T07:49:27;-3.21;88.86
49489;SHT31;35382;51.484;11.476;2024-01-07T07:52:01;-3.24;89.11
49489;SHT31;35382;51.484;11.476;2024-01-07T07:54:27;-3.27;89.47
49489;SHT31;35382;51.484;11.476;2024-01-07T07:57:02;-3.21;89.42
49489;SHT31;35382;51.484;11.476;2024-01-07T07:59:27;-3.24;88.82
49489;SHT31;35382;51.484;11.476;2024-01-07T08:02:12;-3.11;88.66
49489;SHT31;35382;51.484;11.476;2024-01-07T08:04:43;-3.04;88.42
49489;SHT31;35382;51.484;11.476;2024-01-07T08:07:09;-3.13;89.24
49489;SHT31;35382;51.484;11.476;2024-01-07T08:09:43;-3.01;88.97
49489;SHT31;35382;51.484;11.476;2024-01-07T08:12:08;-3.04;87.80
49489;SHT31;35382;51.484;11.476;2024-01-07T08:14:34;-3.09;89.06
49489;SHT31;35382;51.484;11.476;2024-01-07T08:17:07;-3.10;88.68
49489;SHT31;35382;51.484;11.476;2024-01-07T08:19:51;-2.95;88.02
49489;SHT31;35382;51.484;11.476;2024-01-07T08:22:19;-3.16;88.43
49489;SHT31;35382;51.484;11.476;2024-01-07T08:24:49;-3.03;88.01
49489;SHT31;35382;51.484;11.476;2024-01-07T08:27:21;-3.10;87.55
49489;SHT31;35382;51.484;11.476;2024-01-07T08:29:47;-2.99;87.33
49489;SHT31;35382;51.484;11.476;2024-01-07T08:32:15;-3.09;87.65
49489;SHT31;35382;51.484;11.476;2024-01-07T08:34:44;-3.14;87.71
49489;SHT31;35382;51.484;11.476;2024-01-07T08:37:10;-3.13;85.99
49489;SHT31;35382;51.484;11.476;2024-01-07T08:39:39;-3.06;87.18
49489;SHT31;35382;51.484;11.476;2024-01-07T08:42:10;-2.96;86.20
49489;SHT31;35382;51.484;11.476;2024-01-07T08:44:45;-3.09;86.87
49489;SHT31;35382;51.484;11.476;2024-01-07T08:47:11;-2.97;85.60
49489;SHT31;35382;51.484;11.476;2024-01-07T08:49:45;-2.97;86.46
49489;SHT31;35382;51.484;11.476;2024-01-07T08:52:14;-2.89;86.35
49489;SHT31;35382;51.484;11.476;2024-01-07T08:54:47;-2.80;85.50
49489;SHT31;35382;51.484;11.476;2024-01-07T08:57:14;-2.95;85.88
49489;SHT31;35382;51.484;11.476;2024-01-07T08:59:48;-2.85;85.33
49489;SHT31;35382;51.484;11.476;2024-01-07T09:02:16;-2.86;84.79
49489;SHT31;35382;51.484;11.476;2024-01-07T09:05:02;-2.82;85.00
49489;SHT31;35382;51.484;11.476;2024-01-07T09:07:27;-2.83;85.18
49489;SHT31;35382;51.484;11.476;2024-01-07T09:10:05;-2.85;84.51
49489;SHT31;35382;51.484;11.476;2024-01-07T09:12:37;-2.77;83.76
49489;SHT31;35382;51.484;11.476;2024-01-07T09:15:04;-2.70;85.53
49489;SHT31;35382;51.484;11.476;2024-01-07T09:17:31;-2.79;84.56
49489;SHT31;35382;51.484;11.476;2024-01-07T09:19:57;-2.83;84.89
49489;SHT31;35382;51.484;11.476;2024-01-07T09:22:31;-2.86;84.16
49489;SHT31;35382;51.484;11.476;2024-01-07T09:25:03;-2.83;84.78
49489;SHT31;35382;51.484;11.476;2024-01-07T09:27:29;-2.72;84.38
49489;SHT31;35382;51.484;11.476;2024-01-07T09:29:58;-2.72;84.28
49489;SHT31;35382;51.484;11.476;2024-01-07T09:32:27;-2.59;82.79
49489;SHT31;35382;51.484;11.476;2024-01-07T09:35:00;-2.76;83.75
49489;SHT31;35382;51.484;11.476;2024-01-07T09:37:26;-2.53;83.26
49489;SHT31;35382;51.484;11.476;2024-01-07T09:40:04;-2.53;83.44
49489;SHT31;35382;51.484;11.476;2024-01-07T09:42:42;-2.62;83.29
49489;SHT31;35382;51.484;11.476;2024-01-07T09:45:12;-2.52;82.70
49489;SHT31;35382;51.484;11.476;2024-01-07T09:47:48;-2.55;82.81
49489;SHT31;35382;51.484;11.476;2024-01-07T09:50:38;-2.52;82.79
49489;SHT31;35382;51.484;11.476;2024-01-07T09:53:05;-2.45;82.75
49489;SHT31;35382;51.484;11.476;2024-01-07T09:56:11;-2.25;82.56
49489;SHT31;35382;51.484;11.476;2024-01-07T09:58:46;-2.55;82.63
49489;SHT31;35382;51.484;11.476;2024-01-07T10:01:15;-2.37;82.07
49489;SHT31;35382;51.484;11.476;2024-01-07T10:04:00;-2.28;82.04
49489;SHT31;35382;51.484;11.476;2024-01-07T10:06:29;-2.35;82.04
49489;SHT31;35382;51.484;11.476;2024-01-07T10:09:02;-2.55;82.02
49489;SHT31;35382;51.484;11.476;2024-01-07T10:11:28;-2.35;82.18
49489;SHT31;35382;51.484;11.476;2024-01-07T10:14:00;-2.42;82.37
49489;SHT31;35382;51.484;11.476;2024-01-07T10:16:28;-2.19;82.03
49489;SHT31;35382;51.484;11.476;2024-01-07T10:19:03;-1.94;81.20
49489;SHT31;35382;51.484;11.476;2024-01-07T10:21:29;-1.78;80.60
49489;SHT31;35382;51.484;11.476;2024-01-07T10:24:08;-1.62;79.12
49489;SHT31;35382;51.484;11.476;2024-01-07T10:26:43;-1.44;80.35
49489;SHT31;35382;51.484;11.476;2024-01-07T10:29:09;-1.51;80.01
49489;SHT31;35382;51.484;11.476;2024-01-07T10:31:40;-1.43;80.46
49489;SHT31;35382;51.484;11.476;2024-01-07T10:34:09;-1.47;80.12
49489;SHT31;35382;51.484;11.476;2024-01-07T10:36:36;-1.44;79.83
49489;SHT31;35382;51.484;11.476;2024-01-07T10:39:01;-1.74;79.83
49489;SHT31;35382;51.484;11.476;2024-01-07T10:41:27;-1.67;79.89
49489;SHT31;35382;51.484;11.476;2024-01-07T10:44:02;-1.63;80.12
49489;SHT31;35382;51.484;11.476;2024-01-07T10:46:28;-2.02;79.93
49489;SHT31;35382;51.484;11.476;2024-01-07T10:49:26;-2.01;81.10
49489;SHT31;35382;51.484;11.476;2024-01-07T10:52:08;-1.90;80.37
49489;SHT31;35382;51.484;11.476;2024-01-07T10:54:44;-2.07;80.03
49489;SHT31;35382;51.484;11.476;2024-01-07T10:57:38;-2.11;81.26
49489;SHT31;35382;51.484;11.476;2024-01-07T11:00:09;-2.15;81.45
49489;SHT31;35382;51.484;11.476;2024-01-07T11:02:49;-2.05;81.90
49489;SHT31;35382;51.484;11.476;2024-01-07T11:05:42;-2.24;81.23
49489;SHT31;35382;51.484;11.476;2024-01-07T11:08:31;-2.14;80.94
49489;SHT31;35382;51.484;11.476;2024-01-07T11:11:21;-2.18;81.44
49489;SHT31;35382;51.484;11.476;2024-01-07T11:13:49;-2.30;81.74
49489;SHT31;35382;51.484;11.476;2024-01-07T11:16:43;-2.25;82.24
49489;SHT31;35382;51.484;11.476;2024-01-07T11:19:21;-2.22;81.45
49489;SHT31;35382;51.484;11.476;2024-01-07T11:21:47;-2.12;81.25
49489;SHT31;35382;51.484;11.476;2024-01-07T11:24:40;-2.32;81.16
49489;SHT31;35382;51.484;11.476;2024-01-07T11:27:08;-2.14;81.27
49489;SHT31;35382;51.484;11.476;2024-01-07T11:29:35;-2.28;80.96
49489;SHT31;35382;51.484;11.476;2024-01-07T11:32:07;-1.91;80.75
49489;SHT31;35382;51.484;11.476;2024-01-07T11:34:46;-1.78;81.00
49489;SHT31;35382;51.484;11.476;2024-01-07T11:37:13;-1.90;80.58
49489;SHT31;35382;51.484;11.476;2024-01-07T11:40:00;-1.62;80.42
49489;SHT31;35382;51.484;11.476;2024-01-07T11:42:27;-1.59;79.32
49489;SHT31;35382;51.484;11.476;2024-01-07T11:44:59;-1.46;79.83
49489;SHT31;35382;51.484;11.476;2024-01-07T11:47:30;-1.42;78.31
49489;SHT31;35382;51.484;11.476;2024-01-07T11:50:01;-1.38;78.90
49489;SHT31;35382;51.484;11.476;2024-01-07T11:52:27;-1.47;79.05
49489;SHT31;35382;51.484;11.476;2024-01-07T11:54:53;-1.38;79.49
49489;SHT31;35382;51.484;11.476;2024-01-07T11:57:24;-1.32;79.33
49489;SHT31;35382;51.484;11.476;2024-01-07T11:59:50;-1.27;79.75
49489;SHT31;35382;51.484;11.476;2024-01-07T12:02:16;-1.59;79.27
49489;SHT31;35382;51.484;11.476;2024-01-07T12:04:44;-1.53;78.90
49489;SHT31;35382;51.484;11.476;2024-01-07T12:07:20;-1.59;79.02
49489;SHT31;35382;51.484;11.476;2024-01-07T12:09:56;-1.44;78.66
49489;SHT31;35382;51.484;11.476;2024-01-07T12:12:24;-1.53;79.41
49489;SHT31;35382;51.484;11.476;2024-01-07T12:14:50;-1.35;79.55
49489;SHT31;35382;51.484;11.476;2024-01-07T12:17:19;-1.23;78.10
49489;SHT31;35382;51.484;11.476;2024-01-07T12:20:03;-1.21;77.77
49489;SHT31;35382;51.484;11.476;2024-01-07T12:22:29;-1.38;78.30
49489;SHT31;35382;51.484;11.476;2024-01-07T12:25:05;-1.43;78.44
49489;SHT31;35382;51.484;11.476;2024-01-07T12:27:31;-1.49;79.01
49489;SHT31;35382;51.484;11.476;2024-01-07T12:30:00;-1.27;77.95
49489;SHT31;35382;51.484;11.476;2024-01-07T12:32:30;-1.30;78.76
49489;SHT31;35382;51.484;11.476;2024-01-07T12:35:05;-1.38;78.25
49489;SHT31;35382;51.484;11.476;2024-01-07T12:37:31;-1.43;78.66
49489;SHT31;35382;51.484;11.476;2024-01-07T12:40:00;-1.47;78.10
49489;SHT31;35382;51.484;11.476;2024-01-07T12:42:28;-1.50;78.99
49489;SHT31;35382;51.484;11.476;2024-01-07T12:45:23;-1.40;78.89
49489;SHT31;35382;51.484;11.476;2024-01-07T12:47:49;-1.25;78.37
49489;SHT31;35382;51.484;11.476;2024-01-07T12:50:16;-1.26;78.34
49489;SHT31;35382;51.484;11.476;2024-01-07T12:52:46;-1.27;78.03
49489;SHT31;35382;51.484;11.476;2024-01-07T12:55:11;-1.36;78.64
49489;SHT31;35382;51.484;11.476;2024-01-07T12:57:40;-1.38;77.89
49489;SHT31;35382;51.484;11.476;2024-01-07T13:00:06;-1.53;78.98
49489;SHT31;35382;51.484;11.476;2024-01-07T13:02:32;-1.54;79.54
49489;SHT31;35382;51.484;11.476;2024-01-07T13:05:00;-1.39;80.24
49489;SHT31;35382;51.484;11.476;2024-01-07T13:07:28;-1.66;80.50
49489;SHT31;35382;51.484;11.476;2024-01-07T13:10:03;-1.50;81.01
49489;SHT31;35382;51.484;11.476;2024-01-07T13:12:28;-1.57;81.48
49489;SHT31;35382;51.484;11.476;2024-01-07T13:15:00;-1.57;82.23
49489;SHT31;35382;51.484;11.476;2024-01-07T13:17:25;-1.62;82.10
49489;SHT31;35382;51.484;11.476;2024-01-07T13:19:51;-1.53;82.24
49489;SHT31;35382;51.484;11.476;2024-01-07T13:22:19;-1.73;82.75
49489;SHT31;35382;51.484;11.476;2024-01-07T13:24:47;-1.68;82.52
49489;SHT31;35382;51.484;11.476;2024-01-07T13:27:12;-1.70;82.22
49489;SHT31;35382;51.484;11.476;2024-01-07T13:29:44;-1.74;82.77
49489;SHT31;35382;51.484;11.476;2024-01-07T13:32:09;-1.70;82.94
49489;SHT31;35382;51.484;11.476;2024-01-07T13:34:35;-1.73;83.39
49489;SHT31;35382;51.484;11.476;2024-01-07T13:37:03;-1.70;83.55
49489;SHT31;35382;51.484;11.476;2024-01-07T13:39:29;-1.77;83.41
49489;SHT31;35382;51.484;11.476;2024-01-07T13:41:56;-1.84;83.12
49489;SHT31;35382;51.484;11.476;2024-01-07T13:44:22;-1.84;83.96
49489;SHT31;35382;51.484;11.476;2024-01-07T13:46:47;-1.83;84.70
49489;SHT31;35382;51.484;11.476;2024-01-07T13:49:13;-1.90;84.15
49489;SHT31;35382;51.484;11.476;2024-01-07T13:51:45;-1.90;84.12
49489;SHT31;35382;51.484;11.476;2024-01-07T13:54:10;-1.95;84.40
49489;SHT31;35382;51.484;11.476;2024-01-07T13:56:43;-2.05;85.74
49489;SHT31;35382;51.484;11.476;2024-01-07T13:59:09;-2.07;86.01
49489;SHT31;35382;51.484;11.476;2024-01-07T14:01:41;-2.07;85.64
49489;SHT31;35382;51.484;11.476;2024-01-07T14:04:06;-2.07;85.19
49489;SHT31;35382;51.484;11.476;2024-01-07T14:06:32;-1.98;85.41
49489;SHT31;35382;51.484;11.476;2024-01-07T14:09:06;-2.15;85.01
49489;SHT31;35382;51.484;11.476;2024-01-07T14:11:31;-2.07;84.86
49489;SHT31;35382;51.484;11.476;2024-01-07T14:14:06;-2.27;85.28
49489;SHT31;35382;51.484;11.476;2024-01-07T14:16:31;-2.19;85.48
49489;SHT31;35382;51.484;11.476;2024-01-07T14:19:08;-2.19;85.33
49489;SHT31;35382;51.484;11.476;2024-01-07T14:21:41;-2.25;85.92
49489;SHT31;35382;51.484;11.476;2024-01-07T14:24:14;-2.25;85.76
49489;SHT31;35382;51.484;11.476;2024-01-07T14:26:39;-2.28;86.81
49489;SHT31;35382;51.484;11.476;2024-01-07T14:29:05;-2.31;86.46
49489;SHT31;35382;51.484;11.476;2024-01-07T14:31:31;-2.27;86.99
49489;SHT31;35382;51.484;11.476;2024-01-07T14:34:03;-2.15;86.93
49489;SHT31;35382;51.484;11.476;2024-01-07T14:36:28;-2.18;86.78
49489;SHT31;35382;51.484;11.476;2024-01-07T14:39:06;-2.27;87.60
49489;SHT31;35382;51.484;11.476;2024-01-07T14:41:31;-2.27;87.74
49489;SHT31;35382;51.484;11.476;2024-01-07T14:44:03;-2.31;87.64
49489;SHT31;35382;51.484;11.476;2024-01-07T14:46:28;-2.25;88.16
49489;SHT31;35382;51.484;11.476;2024-01-07T14:48:54;-2.28;88.49
49489;SHT31;35382;51.484;11.476;2024-01-07T14:51:29;-2.28;88.53
49489;SHT31;35382;51.484;11.476;2024-01-07T14:54:04;-2.31;89.12
49489;SHT31;35382;51.484;11.476;2024-01-07T14:56:29;-2.28;88.75
49489;SHT31;35382;51.484;11.476;2024-01-07T14:59:05;-2.27;89.51
49489;SHT31;35382;51.484;11.476;2024-01-07T15:01:34;-2.15;89.43
49489;SHT31;35382;51.484;11.476;2024-01-07T15:04:10;-2.19;89.41
49489;SHT31;35382;51.484;11.476;2024-01-07T15:06:42;-2.08;89.64
49489;SHT31;35382;51.484;11.476;2024-01-07T15:09:11;-2.27;90.59
49489;SHT31;35382;51.484;11.476;2024-01-07T15:11:45;-2.19;89.90
49489;SHT31;35382;51.484;11.476;2024-01-07T15:14:11;-2.27;90.31
49489;SHT31;35382;51.484;11.476;2024-01-07T15:16:50;-2.25;90.81
49489;SHT31;35382;51.484;11.476;2024-01-07T15:19:22;-2.30;91.43
49489;SHT31;35382;51.484;11.476;2024-01-07T15:21:48;-2.24;91.75
49489;SHT31;35382;51.484;11.476;2024-01-07T15:24:13;-2.25;91.29
49489;SHT31;35382;51.484;11.476;2024-01-07T15:26:45;-2.27;91.71